createdAt,value
2022-12-23T00:03:18.403Z,90.75
2022-12-23T00:08:20.839Z,89.78
2022-12-23T00:13:39.099Z,89.47
2022-12-23T00:18:41.005Z,90.09
2022-12-23T00:23:46.878Z,90.05
2022-12-23T00:28:47.558Z,89.63
2022-12-23T00:33:51.346Z,89.51
2022-12-23T00:39:11.015Z,88.79
2022-12-23T00:44:11.687Z,88.52
2022-12-23T00:49:31.612Z,89.04
2022-12-23T00:54:33.769Z,88.24
2022-12-23T00:59:34.543Z,87.41
2022-12-23T01:04:53.205Z,88.09
2022-12-23T01:09:55.206Z,86.88
2022-12-23T01:14:55.891Z,86.41
2022-12-23T01:19:56.568Z,87.09
2022-12-23T01:24:58.595Z,87.27
2022-12-23T01:29:59.246Z,86.22
2022-12-23T01:34:59.974Z,86.40
2022-12-23T01:40:02.023Z,86.45
2022-12-23T01:45:06.145Z,86.27
2022-12-23T01:50:13.461Z,85.88
2022-12-23T01:55:19.134Z,86.33
2022-12-23T02:00:37.262Z,86.61
2022-12-23T02:05:39.153Z,85.59
2022-12-23T02:11:09.545Z,85.82
2022-12-23T02:16:20.337Z,86.11
2022-12-23T02:21:32.893Z,86.17
2022-12-23T02:27:04.234Z,85.44
2022-12-23T02:32:13.803Z,85.61
2022-12-23T02:37:22.079Z,85.65
2022-12-23T02:42:26.700Z,85.38
2022-12-23T02:47:34.189Z,85.38
2022-12-23T02:52:37.367Z,85.38
2022-12-23T02:57:43.693Z,85.36
2022-12-23T03:02:46.208Z,85.50
2022-12-23T03:07:48.160Z,85.54
2022-12-23T03:12:59.025Z,86.07
2022-12-23T03:18:06.946Z,85.59
2022-12-23T03:23:20.255Z,85.96
2022-12-23T03:28:28.036Z,85.89
2022-12-23T03:33:33.960Z,85.37
2022-12-23T03:38:39.859Z,85.40
2022-12-23T03:43:50.446Z,85.54
2022-12-23T03:48:57.649Z,86.12
2022-12-23T03:54:02.698Z,85.06
2022-12-23T03:59:12.104Z,85.49
2022-12-23T04:04:22.268Z,85.43
2022-12-23T04:09:26.304Z,85.71
2022-12-23T04:14:26.966Z,85.36
2022-12-23T04:19:29.164Z,85.31
2022-12-23T04:24:29.853Z,84.50
2022-12-23T04:29:30.560Z,85.05
2022-12-23T04:34:32.593Z,85.63
2022-12-23T04:39:33.244Z,85.25
2022-12-23T04:44:33.942Z,84.61
2022-12-23T04:49:39.680Z,84.57
2022-12-23T04:54:45.930Z,84.98
2022-12-23T05:00:15.818Z,83.99
2022-12-23T05:05:18.214Z,84.03
2022-12-23T05:10:19.077Z,83.41
2022-12-23T05:15:19.700Z,82.44
2022-12-23T05:20:21.702Z,81.09
2022-12-23T05:25:22.324Z,80.83
2022-12-23T05:30:23.002Z,81.16
2022-12-23T05:35:26.693Z,80.36
2022-12-23T05:40:29.183Z,80.31
2022-12-23T05:45:30.347Z,79.95
2022-12-23T05:50:32.424Z,80.00
2022-12-23T05:55:36.456Z,80.43
2022-12-23T06:00:37.131Z,79.96
2022-12-23T06:05:39.826Z,79.57
2022-12-23T06:10:40.478Z,79.03
2022-12-23T06:15:41.193Z,77.76
2022-12-23T06:20:46.053Z,78.02
2022-12-23T06:25:46.709Z,77.99
2022-12-23T06:30:47.361Z,77.68
2022-12-23T06:35:49.424Z,77.43
2022-12-23T06:40:50.346Z,77.34
2022-12-23T06:45:51.746Z,77.05
2022-12-23T06:50:53.830Z,77.76
2022-12-23T06:56:00.830Z,80.58
2022-12-23T07:01:01.578Z,81.61
2022-12-23T07:06:04.104Z,83.22
2022-12-23T07:11:05.600Z,83.28
2022-12-23T07:16:08.200Z,83.97
2022-12-23T07:21:19.779Z,84.47
2022-12-23T07:26:25.620Z,84.67
2022-12-23T07:31:26.288Z,83.82
2022-12-23T07:36:28.340Z,84.91
2022-12-23T07:41:28.988Z,85.36
2022-12-23T07:46:35.939Z,85.54
2022-12-23T07:51:37.985Z,84.73
2022-12-23T07:56:38.658Z,84.38
2022-12-23T08:01:39.532Z,84.49
2022-12-23T08:06:41.675Z,85.17
2022-12-23T08:11:42.422Z,85.48
2022-12-23T08:16:44.275Z,85.68
2022-12-23T08:21:46.567Z,85.14
2022-12-23T08:26:47.232Z,85.05
2022-12-23T08:31:48.024Z,85.71
2022-12-23T08:36:50.026Z,85.33
2022-12-23T08:41:50.800Z,84.74
2022-12-23T08:46:51.608Z,83.48
2022-12-23T08:51:53.785Z,82.52
2022-12-23T08:56:54.554Z,82.66
2022-12-23T09:01:55.448Z,81.36
2022-12-23T09:06:57.478Z,79.86
2022-12-23T09:11:58.211Z,80.46
2022-12-23T09:17:00.115Z,80.46
2022-12-23T09:22:02.233Z,80.37
2022-12-23T09:27:02.907Z,80.54
2022-12-23T09:32:03.631Z,79.90
2022-12-23T09:37:05.640Z,79.96
2022-12-23T09:42:16.410Z,78.69
2022-12-23T09:47:20.114Z,78.92
2022-12-23T09:52:26.310Z,78.22
2022-12-23T09:57:35.344Z,77.96
2022-12-23T10:02:50.048Z,77.84
2022-12-23T10:07:56.886Z,76.74
2022-12-23T10:13:01.473Z,77.51
2022-12-23T10:18:06.334Z,77.17
2022-12-23T10:23:16.863Z,76.41
2022-12-23T10:28:17.619Z,76.61
2022-12-23T10:33:22.684Z,76.90
2022-12-23T10:38:35.152Z,75.99
2022-12-23T10:43:46.953Z,75.17
2022-12-23T10:48:57.101Z,74.82
2022-12-23T10:54:05.009Z,76.17
2022-12-23T10:59:13.224Z,74.12
2022-12-23T11:04:17.310Z,74.38
2022-12-23T11:09:22.857Z,73.84
2022-12-23T11:14:36.337Z,74.49
2022-12-23T11:19:37.306Z,74.03
2022-12-23T11:24:43.173Z,74.63
2022-12-23T11:29:47.244Z,73.96
2022-12-23T11:34:49.448Z,72.98
2022-12-23T11:39:51.648Z,72.72
2022-12-23T11:44:56.050Z,72.05
2022-12-23T11:49:58.624Z,72.19
2022-12-23T11:55:02.519Z,71.35
2022-12-23T12:00:06.094Z,71.29
2022-12-23T12:05:20.061Z,71.69
2022-12-23T12:10:26.633Z,71.83
2022-12-23T12:15:36.428Z,70.86
2022-12-23T12:20:40.270Z,71.60
2022-12-23T12:25:47.250Z,71.42
2022-12-23T12:30:53.368Z,70.64
2022-12-23T12:36:10.176Z,70.01
2022-12-23T12:41:19.460Z,70.31
2022-12-23T12:46:29.994Z,70.52
2022-12-23T12:51:38.293Z,71.12
2022-12-23T12:56:45.283Z,71.73
2022-12-23T13:01:56.702Z,70.89
2022-12-23T13:07:05.742Z,71.32
2022-12-23T13:12:17.232Z,72.32
2022-12-23T13:17:22.659Z,71.03
2022-12-23T13:22:28.205Z,71.15
2022-12-23T13:27:34.141Z,72.80
2022-12-23T13:33:12.679Z,73.18
2022-12-23T13:38:31.119Z,72.49
2022-12-23T13:43:43.330Z,72.56
2022-12-23T13:48:53.412Z,72.83
2022-12-23T13:54:04.879Z,72.49
2022-12-23T13:59:11.281Z,73.47
2022-12-23T14:04:36.804Z,73.20
2022-12-23T14:09:40.824Z,72.94
2022-12-23T14:14:55.476Z,73.82
2022-12-23T14:20:09.239Z,73.31
2022-12-23T14:25:32.484Z,73.57
2022-12-23T14:30:37.257Z,72.74
2022-12-23T14:35:55.298Z,74.23
2022-12-23T14:41:01.278Z,73.11
2022-12-23T14:46:05.798Z,73.51
2022-12-23T14:51:26.299Z,74.14
2022-12-23T14:56:37.578Z,74.08
2022-12-23T15:01:42.066Z,73.94
2022-12-23T15:06:45.948Z,74.94
2022-12-23T15:11:46.859Z,74.69
2022-12-23T15:16:48.962Z,75.85
2022-12-23T15:21:59.591Z,76.16
2022-12-23T15:32:29.953Z,75.72
2022-12-23T15:37:32.445Z,76.63
2022-12-23T15:42:35.427Z,76.17
2022-12-23T15:47:41.786Z,76.80
2022-12-23T15:52:46.055Z,76.84
2022-12-23T15:57:50.584Z,76.74
2022-12-23T16:03:01.490Z,76.79
2022-12-23T16:08:11.943Z,76.87
2022-12-23T16:13:18.958Z,80.57
2022-12-23T16:18:24.289Z,78.26
2022-12-23T16:23:30.206Z,79.12
2022-12-23T16:28:36.927Z,77.60
2022-12-23T16:33:44.479Z,77.20
2022-12-23T16:38:45.638Z,76.85
2022-12-23T16:43:52.158Z,77.97
2022-12-23T16:48:58.262Z,76.39
2022-12-23T16:53:59.138Z,76.25
2022-12-23T16:58:59.830Z,76.35
2022-12-23T17:04:02.176Z,77.02
2022-12-23T17:09:03.321Z,77.41
2022-12-23T17:14:07.856Z,77.52
2022-12-23T17:19:12.892Z,77.60
2022-12-23T17:24:18.659Z,78.46
2022-12-23T17:29:20.672Z,79.58
2022-12-23T17:34:25.388Z,80.98
2022-12-23T17:39:26.694Z,82.14
2022-12-23T17:44:27.498Z,82.69
2022-12-23T17:49:29.499Z,83.86
2022-12-23T17:54:30.307Z,84.42
2022-12-23T17:59:30.977Z,85.13
2022-12-23T18:04:33.028Z,85.86
2022-12-23T18:09:33.672Z,86.12
2022-12-23T18:14:34.374Z,86.63
2022-12-23T18:19:36.536Z,86.67
2022-12-23T18:24:37.241Z,86.88
2022-12-23T18:29:37.899Z,87.24
2022-12-23T18:34:39.939Z,87.08
2022-12-23T18:39:40.727Z,87.76
2022-12-23T18:44:43.134Z,87.26
2022-12-23T18:49:45.163Z,87.92
2022-12-23T18:54:45.848Z,88.57
2022-12-23T18:59:46.605Z,88.69
2022-12-23T19:04:48.666Z,88.83
2022-12-23T19:09:49.490Z,88.88
2022-12-23T19:14:50.289Z,89.38
2022-12-23T19:19:52.305Z,89.71
2022-12-23T19:25:05.342Z,89.75
2022-12-23T19:30:07.897Z,89.69
2022-12-23T19:35:13.962Z,90.27
2022-12-23T19:40:14.808Z,90.12
2022-12-23T19:45:17.102Z,90.65
2022-12-23T19:50:20.097Z,90.58
2022-12-23T19:55:20.866Z,90.99
2022-12-23T20:00:21.674Z,91.22
2022-12-23T20:05:23.843Z,90.90
2022-12-23T20:10:24.718Z,90.72
2022-12-23T20:15:25.412Z,91.25
2022-12-23T20:20:27.684Z,91.14
2022-12-23T20:25:28.434Z,91.26
2022-12-23T20:30:29.226Z,91.23
2022-12-23T20:35:32.069Z,91.41
2022-12-23T20:40:32.869Z,91.06
2022-12-23T20:45:33.580Z,91.29
2022-12-23T20:50:39.190Z,90.48
2022-12-23T20:55:39.927Z,91.00
2022-12-23T21:00:41.789Z,90.71
2022-12-23T21:05:43.937Z,90.44
2022-12-23T21:10:44.719Z,90.24
2022-12-23T21:15:45.470Z,90.66
2022-12-23T21:20:47.496Z,90.26
2022-12-23T21:25:48.188Z,89.82
2022-12-23T21:30:48.902Z,89.74
2022-12-23T21:35:50.933Z,90.19
2022-12-23T21:40:51.623Z,89.84
2022-12-23T21:45:57.829Z,90.34
2022-12-23T21:51:05.825Z,90.38
2022-12-23T21:56:10.016Z,90.26
2022-12-23T22:01:13.748Z,90.03
2022-12-23T22:06:17.747Z,90.56
2022-12-23T22:11:20.957Z,90.30
2022-12-23T22:16:23.655Z,90.81
2022-12-23T22:21:27.491Z,90.50
2022-12-23T22:26:30.995Z,91.21
2022-12-23T22:31:35.405Z,90.74
2022-12-23T22:36:37.788Z,90.68
2022-12-23T22:41:38.486Z,91.19
2022-12-23T22:46:39.144Z,91.07
2022-12-23T22:51:42.412Z,91.23
2022-12-23T22:56:43.391Z,89.21
2022-12-23T23:01:44.156Z,88.22
2022-12-23T23:06:46.224Z,89.26
2022-12-23T23:11:47.076Z,88.36
2022-12-23T23:16:47.752Z,86.20
2022-12-23T23:21:49.810Z,85.04
2022-12-23T23:26:50.464Z,84.97
2022-12-23T23:31:51.224Z,84.72
2022-12-23T23:36:53.265Z,84.16
2022-12-23T23:41:54.197Z,84.98
2022-12-23T23:46:54.949Z,85.19
2022-12-23T23:51:56.964Z,85.19
2022-12-23T23:56:57.621Z,85.91
